Terminal Aerodrome Forecast
Issued by NWS

Home | Current Version | Previous Version | Text Only | Print | Product List | Glossary On
Versions: 1 2 3 4 5 6 7 8 9 10 11 12 13 14 15 16 17 18 19 20 21
000
FTUS43 KMPX 042336
TAFRWF
TAF
KRWF 042336Z 0500/0524 17009KT P6SM -SHRA VCTS SCT035CB OVC100
     FM050300 15009KT P6SM FEW030 OVC120
     FM050900 14007KT 5SM BR FEW015 BKN120
     FM051500 17012G20KT P6SM FEW030 SCT150
     FM051900 18018G25KT P6SM SCT040 BKN250=

USA.gov is the U.S. government's official web portal to all federal, state and local government web resources and services.